Flight Number: EUR1092 Duration: 1:30
Departure: Milano Linate (LIML) at 08:30 Distance: 510 Nm
Arrival: Gatwick Airport (EGKK) at 10:00 Equipment: MD-81

Weather Information
Milano / Linate, Italy (LIML) 45-26N 009-17E 103M May 23, 2018 - 08:20 PM EDT / 2018.05.24 0020 UTC
Wind: Variable at 1 MPH (1 KT):0
Visibility: greater than 7 mile(s):0 Temperature: 62 F (17 C) Dew Point: 59 F (15 C) Relative Humidity: 88% Pressure (altimeter): 30.03 in. Hg (1017 hPa)
ob: LIML 240020Z VRB01KT CAVOK 17/15 Q1017 NOSIG cycle: 0
Sunrise: 03:46 Sunset: 18:52 (UTC)

404 Not Found

Not Found

The requested URL /data/observations/metar/decoded/EGKK.TXT was not found on this server.


Sunrise: 04:02 Sunset: 19:52 (UTC)

TAF:2018/05/23 18:15 TAF EGKK 231705Z 2318/2424 02010KT 9999 SCT030 PROB30 TEMPO 2318/2321 7000 SHRA TEMPO 2321/2418 6000 SHRA PROB30 TEMPO 2323/2406 4000 +SHRA PROB40 TEMPO 2410/2418 04015G25KT 4000 +SHRA BECMG 2418/2421 VRB03KT

Previous Pireps for this route
Date Aircraft Flight time Fuel used Landing rate On time
2012-08-27MD-8102.2112000-349No
2012-09-23MD-8102.0713658-164No
2012-12-14A32101.4810598-234Yes
2013-03-06A3211.328957-74No
2013-09-02A3211.35117810No
2014-01-02A32101.3910325-265Yes
2014-10-15MD-8101.3510888-386Yes
2015-05-25A32101.5911235-231Yes
2015-08-10MD-8101.3710852-234Yes
2016-03-12MD-8101.4011151-204Yes
2016-10-16MD-811.40120520Charter
2017-08-26MD-812.2890620Charter
2017-08-26MD-812.2890620Charter
(pireps marked green are flown by you)

Route map